createdAt,value
2023-02-18T00:00:31.375Z,13.50
2023-02-18T00:02:58.380Z,13.50
2023-02-18T00:05:27.346Z,13.50
2023-02-18T00:07:54.254Z,13.50
2023-02-18T00:10:21.289Z,13.50
2023-02-18T00:12:48.251Z,13.50
2023-02-18T00:15:15.291Z,13.40
2023-02-18T00:17:42.176Z,13.40
2023-02-18T00:20:09.372Z,13.40
2023-02-18T00:22:38.800Z,13.30
2023-02-18T00:25:05.764Z,13.30
2023-02-18T00:27:32.702Z,13.30
2023-02-18T00:30:01.736Z,13.30
2023-02-18T00:32:28.826Z,13.30
2023-02-18T00:34:56.278Z,13.30
2023-02-18T00:37:23.212Z,13.30
2023-02-18T00:39:50.124Z,13.30
2023-02-18T00:42:17.084Z,13.30
2023-02-18T00:44:44.006Z,13.20
2023-02-18T00:47:11.011Z,13.20
2023-02-18T00:49:38.108Z,13.10
2023-02-18T00:52:05.169Z,13.10
2023-02-18T00:54:33.425Z,13.10
2023-02-18T00:57:00.312Z,13.10
2023-02-18T00:59:27.165Z,13.10
2023-02-18T01:01:54.051Z,13.00
2023-02-18T01:04:21.198Z,13.00
2023-02-18T01:06:48.224Z,12.90
2023-02-18T01:09:15.153Z,12.90
2023-02-18T01:11:42.157Z,13.00
2023-02-18T01:14:12.018Z,12.90
2023-02-18T01:16:39.037Z,13.00
2023-02-18T01:19:08.697Z,13.00
2023-02-18T01:21:35.675Z,12.90
2023-02-18T01:24:02.871Z,13.00
2023-02-18T01:26:30.096Z,13.00
2023-02-18T01:28:57.075Z,13.00
2023-02-18T01:31:23.889Z,13.00
2023-02-18T01:33:51.430Z,13.00
2023-02-18T01:36:18.432Z,13.10
2023-02-18T01:38:45.355Z,13.10
2023-02-18T01:41:12.315Z,13.10
2023-02-18T01:43:39.595Z,13.10
2023-02-18T01:46:17.407Z,13.10
2023-02-18T01:48:53.941Z,13.10
2023-02-18T01:51:47.062Z,13.10
2023-02-18T01:54:30.014Z,13.10
2023-02-18T01:57:17.185Z,13.10
2023-02-18T02:00:14.951Z,13.20
2023-02-18T02:02:46.433Z,13.20
2023-02-18T02:05:13.651Z,13.20
2023-02-18T02:07:42.065Z,13.20
2023-02-18T02:10:13.168Z,13.20
2023-02-18T02:12:50.660Z,13.20
2023-02-18T02:15:32.714Z,13.20
2023-02-18T02:18:28.742Z,13.20
2023-02-18T02:21:39.324Z,13.30
2023-02-18T02:24:39.116Z,13.30
2023-02-18T02:27:12.105Z,13.30
2023-02-18T02:30:19.332Z,13.30
2023-02-18T02:33:07.541Z,13.30
2023-02-18T02:35:37.218Z,13.30
2023-02-18T02:38:42.290Z,13.40
2023-02-18T02:41:20.288Z,13.40
2023-02-18T02:44:00.296Z,13.40
2023-02-18T02:46:35.234Z,13.40
2023-02-18T02:49:13.025Z,13.40
2023-02-18T02:52:00.710Z,13.50
2023-02-18T02:54:29.194Z,13.50
2023-02-18T02:57:09.919Z,13.50
2023-02-18T02:59:47.659Z,13.50
2023-02-18T03:02:40.213Z,13.50
2023-02-18T03:05:32.230Z,13.50
2023-02-18T03:08:09.148Z,13.50
2023-02-18T03:10:51.843Z,13.50
2023-02-18T03:13:42.939Z,13.50
2023-02-18T03:16:24.216Z,13.50
2023-02-18T03:19:06.242Z,13.50
2023-02-18T03:21:51.964Z,13.60
2023-02-18T03:24:25.194Z,13.60
2023-02-18T03:26:58.229Z,13.60
2023-02-18T03:29:27.088Z,13.60
2023-02-18T03:31:58.127Z,13.60
2023-02-18T03:34:35.685Z,13.60
2023-02-18T03:37:03.073Z,13.70
2023-02-18T03:39:34.516Z,13.70
2023-02-18T03:42:01.677Z,13.70
2023-02-18T03:44:31.137Z,13.70
2023-02-18T03:46:58.282Z,13.70
2023-02-18T03:49:25.272Z,13.70
2023-02-18T03:51:52.150Z,13.70
2023-02-18T03:54:20.414Z,13.70
2023-02-18T03:56:47.813Z,13.70
2023-02-18T03:59:14.896Z,13.70
2023-02-18T04:01:41.898Z,13.70
2023-02-18T04:04:09.002Z,13.70
2023-02-18T04:06:36.044Z,13.70
2023-02-18T04:09:08.999Z,13.70
2023-02-18T04:11:40.877Z,13.70
2023-02-18T04:14:08.768Z,13.70
2023-02-18T04:16:35.875Z,13.70
2023-02-18T04:19:02.993Z,13.70
2023-02-18T04:21:29.903Z,13.70
2023-02-18T04:23:56.835Z,13.70
2023-02-18T04:26:23.928Z,13.80
2023-02-18T04:28:50.823Z,13.80
2023-02-18T04:31:17.808Z,13.70
2023-02-18T04:33:44.778Z,13.70
2023-02-18T04:36:11.663Z,13.70
2023-02-18T04:38:38.566Z,13.70
2023-02-18T04:41:05.512Z,13.70
2023-02-18T04:43:32.274Z,13.60
2023-02-18T04:45:59.143Z,13.60
2023-02-18T04:48:26.147Z,13.60
2023-02-18T04:50:53.082Z,13.60
2023-02-18T04:53:20.088Z,13.60
2023-02-18T04:55:51.744Z,13.60
2023-02-18T04:58:21.491Z,13.60
2023-02-18T05:00:48.627Z,13.60
2023-02-18T05:03:18.518Z,13.50
2023-02-18T05:05:45.999Z,13.60
2023-02-18T05:08:13.061Z,13.50
2023-02-18T05:10:40.113Z,13.50
2023-02-18T05:13:07.056Z,13.50
2023-02-18T05:15:33.934Z,13.50
2023-02-18T05:18:00.923Z,13.50
2023-02-18T05:20:28.875Z,13.50
2023-02-18T05:22:56.079Z,13.40
2023-02-18T05:25:23.066Z,13.40
2023-02-18T05:27:50.055Z,13.40
2023-02-18T05:30:17.294Z,13.40
2023-02-18T05:32:44.208Z,13.40
2023-02-18T05:35:11.486Z,13.40
2023-02-18T05:37:38.453Z,13.40
2023-02-18T05:40:06.230Z,13.40
2023-02-18T05:42:33.223Z,13.40
2023-02-18T05:45:00.307Z,13.40
2023-02-18T05:47:27.148Z,13.40
2023-02-18T05:49:55.998Z,13.40
2023-02-18T05:52:23.109Z,13.40
2023-02-18T05:54:50.106Z,13.40
2023-02-18T05:57:17.411Z,13.40
2023-02-18T05:59:44.362Z,13.40
2023-02-18T06:02:11.190Z,13.40
2023-02-18T06:04:38.037Z,13.40
2023-02-18T06:07:04.941Z,13.40
2023-02-18T06:09:31.882Z,13.40
2023-02-18T06:11:58.932Z,13.40
2023-02-18T06:14:25.903Z,13.40
2023-02-18T06:16:52.855Z,13.40
2023-02-18T06:19:19.849Z,13.40
2023-02-18T06:21:46.964Z,13.40
2023-02-18T06:24:13.758Z,13.40
2023-02-18T06:26:40.788Z,13.40
2023-02-18T06:29:07.579Z,13.50
2023-02-18T06:31:34.568Z,13.50
2023-02-18T06:34:01.653Z,13.40
2023-02-18T06:36:28.570Z,13.40
2023-02-18T06:38:57.380Z,13.40
2023-02-18T06:41:24.261Z,13.40
2023-02-18T06:43:51.799Z,13.40
2023-02-18T06:46:18.794Z,13.50
2023-02-18T06:48:45.856Z,13.50
2023-02-18T06:51:12.964Z,13.50
2023-02-18T06:53:39.952Z,13.50
2023-02-18T06:56:09.636Z,13.50
2023-02-18T06:58:36.857Z,13.50
2023-02-18T07:01:04.099Z,13.50
2023-02-18T07:03:31.058Z,13.50
2023-02-18T07:05:57.997Z,13.50
2023-02-18T07:08:24.937Z,13.50
2023-02-18T07:10:51.847Z,13.50
2023-02-18T07:13:18.782Z,13.50
2023-02-18T07:15:45.620Z,13.50
2023-02-18T07:18:12.479Z,13.50
2023-02-18T07:20:39.326Z,13.40
2023-02-18T07:23:06.340Z,13.50
2023-02-18T07:25:33.298Z,13.50
2023-02-18T07:28:00.260Z,13.50
2023-02-18T07:30:27.249Z,13.40
2023-02-18T07:32:54.211Z,13.40
2023-02-18T07:35:21.664Z,13.40
2023-02-18T07:37:50.102Z,13.40
2023-02-18T07:40:21.964Z,13.40
2023-02-18T07:42:49.365Z,13.40
2023-02-18T07:45:16.570Z,13.40
2023-02-18T07:47:45.645Z,13.40
2023-02-18T07:50:13.000Z,13.40
2023-02-18T07:52:39.955Z,13.30
2023-02-18T07:55:07.361Z,13.30
2023-02-18T07:57:54.311Z,13.30
2023-02-18T08:00:21.436Z,13.30
2023-02-18T08:02:48.483Z,13.30
2023-02-18T08:05:15.369Z,13.40
2023-02-18T08:07:42.334Z,13.40
2023-02-18T08:10:09.678Z,13.40
2023-02-18T08:12:36.584Z,13.40
2023-02-18T08:15:04.079Z,13.40
2023-02-18T08:17:31.073Z,13.40
2023-02-18T08:19:57.883Z,13.40
2023-02-18T08:22:24.690Z,13.40
2023-02-18T08:24:53.724Z,13.30
2023-02-18T08:27:20.534Z,13.40
2023-02-18T08:29:47.810Z,13.40
2023-02-18T08:32:14.770Z,13.30
2023-02-18T08:34:41.682Z,13.30
2023-02-18T08:37:08.585Z,13.30
2023-02-18T08:39:38.523Z,13.30
2023-02-18T08:42:06.577Z,13.30
2023-02-18T08:44:33.519Z,13.30
2023-02-18T08:47:00.463Z,13.40
2023-02-18T08:49:27.761Z,13.30
2023-02-18T08:51:55.379Z,13.30
2023-02-18T08:54:22.430Z,13.30
2023-02-18T08:56:49.391Z,13.30
2023-02-18T08:59:16.365Z,13.30
2023-02-18T09:01:43.272Z,13.20
2023-02-18T09:04:10.235Z,13.20
2023-02-18T09:06:38.477Z,13.20
2023-02-18T09:09:05.427Z,13.20
2023-02-18T09:11:32.674Z,13.20
2023-02-18T09:14:00.033Z,13.20
2023-02-18T09:16:28.325Z,13.20
2023-02-18T09:18:55.941Z,13.20
2023-02-18T09:21:23.588Z,13.30
2023-02-18T09:23:51.559Z,13.30
2023-02-18T09:26:23.137Z,13.30
2023-02-18T09:28:51.184Z,13.30
2023-02-18T09:31:21.480Z,13.40
2023-02-18T09:33:52.542Z,13.40
2023-02-18T09:36:20.620Z,13.40
2023-02-18T09:38:47.999Z,13.40
2023-02-18T09:41:18.450Z,13.40
2023-02-18T09:43:51.438Z,13.40
2023-02-18T09:46:31.525Z,13.40
2023-02-18T09:49:01.400Z,13.40
2023-02-18T09:51:28.488Z,13.40
2023-02-18T09:53:55.686Z,13.40
2023-02-18T09:56:39.051Z,13.40
2023-02-18T09:59:13.262Z,13.40
2023-02-18T10:01:41.579Z,13.40
2023-02-18T10:04:30.432Z,13.40
2023-02-18T10:06:58.659Z,13.50
2023-02-18T10:09:28.609Z,13.50
2023-02-18T10:12:11.847Z,13.50
2023-02-18T10:14:38.700Z,13.50
2023-02-18T10:17:06.694Z,13.60
2023-02-18T10:19:40.990Z,13.60
2023-02-18T10:22:12.851Z,13.70
2023-02-18T10:24:59.467Z,13.70
2023-02-18T10:27:38.202Z,13.70
2023-02-18T10:30:17.046Z,13.70
2023-02-18T10:32:45.687Z,13.80
2023-02-18T10:35:44.733Z,13.80
2023-02-18T10:38:23.686Z,13.80
2023-02-18T10:40:53.467Z,13.80
2023-02-18T10:43:46.416Z,13.80
2023-02-18T10:46:27.927Z,13.80
2023-02-18T10:49:04.586Z,13.80
2023-02-18T10:51:35.559Z,13.90
2023-02-18T10:54:02.356Z,13.90
2023-02-18T10:56:38.745Z,13.90
2023-02-18T10:59:20.547Z,14.00
2023-02-18T11:02:13.347Z,14.00
2023-02-18T11:04:45.876Z,14.10
2023-02-18T11:07:26.710Z,14.10
2023-02-18T11:09:56.267Z,14.20
2023-02-18T11:12:43.192Z,14.20
2023-02-18T11:15:18.781Z,14.20
2023-02-18T11:17:48.415Z,14.20
2023-02-18T11:20:22.257Z,14.30
2023-02-18T11:22:49.794Z,14.30
2023-02-18T11:25:28.943Z,14.40
2023-02-18T11:27:57.930Z,14.40
2023-02-18T11:30:36.522Z,14.50
2023-02-18T11:33:23.504Z,14.50
2023-02-18T11:35:56.494Z,14.60
2023-02-18T11:38:36.719Z,14.60
2023-02-18T11:41:12.157Z,14.60
2023-02-18T11:43:43.454Z,14.60
2023-02-18T11:46:14.349Z,14.60
2023-02-18T11:48:41.880Z,14.60
2023-02-18T11:51:18.345Z,14.60
2023-02-18T11:54:20.603Z,14.60
2023-02-18T11:57:05.672Z,14.60
2023-02-18T11:59:40.134Z,14.60
2023-02-18T12:02:10.226Z,14.60
2023-02-18T12:04:42.144Z,14.70
2023-02-18T12:07:26.542Z,14.70
2023-02-18T12:09:58.358Z,14.80
2023-02-18T12:12:32.218Z,14.80
2023-02-18T12:15:00.423Z,14.80
2023-02-18T12:18:00.874Z,14.80
2023-02-18T12:21:03.010Z,15.00
2023-02-18T12:23:47.078Z,15.00
2023-02-18T12:26:36.042Z,15.00
2023-02-18T12:29:11.574Z,15.10
2023-02-18T12:32:12.628Z,15.10
2023-02-18T12:35:19.126Z,15.10
2023-02-18T12:38:10.386Z,15.10
2023-02-18T12:40:48.076Z,15.00
2023-02-18T12:43:39.466Z,15.00
2023-02-18T12:46:21.572Z,15.10
2023-02-18T12:49:20.231Z,15.10
2023-02-18T12:52:02.123Z,15.10
2023-02-18T12:55:06.648Z,15.20
2023-02-18T12:57:40.235Z,15.20
2023-02-18T13:00:51.160Z,15.10
2023-02-18T13:03:51.190Z,15.10
2023-02-18T13:06:38.033Z,15.20
2023-02-18T13:09:41.047Z,15.30
2023-02-18T13:12:24.693Z,15.30
2023-02-18T13:15:05.045Z,15.30
2023-02-18T13:17:36.882Z,15.30
2023-02-18T13:20:14.248Z,15.40
2023-02-18T13:22:41.275Z,15.40
2023-02-18T13:25:13.607Z,15.30
2023-02-18T13:28:09.906Z,15.30
2023-02-18T13:31:14.032Z,15.30
2023-02-18T13:34:00.798Z,15.30
2023-02-18T13:36:55.248Z,15.30
2023-02-18T13:39:24.719Z,15.30
2023-02-18T13:42:09.848Z,15.30
2023-02-18T13:44:40.828Z,15.40
2023-02-18T13:47:09.010Z,15.30
2023-02-18T13:49:39.948Z,15.30
2023-02-18T13:52:07.392Z,15.40
2023-02-18T13:54:42.054Z,15.40
2023-02-18T13:57:21.761Z,15.40
2023-02-18T13:59:48.578Z,15.40
2023-02-18T14:02:21.825Z,15.40
2023-02-18T14:04:54.419Z,15.50
2023-02-18T14:07:33.223Z,15.50
2023-02-18T14:10:01.799Z,15.50
2023-02-18T14:12:37.781Z,15.50
2023-02-18T14:15:27.690Z,15.60
2023-02-18T14:18:12.961Z,15.60
2023-02-18T14:20:39.772Z,15.60
2023-02-18T14:23:18.854Z,15.60
2023-02-18T14:25:58.802Z,15.70
2023-02-18T14:28:37.407Z,15.70
2023-02-18T14:31:41.858Z,15.70
2023-02-18T14:34:46.095Z,15.70
2023-02-18T14:37:30.828Z,15.70
2023-02-18T14:40:26.796Z,15.70
2023-02-18T14:43:07.452Z,15.70
2023-02-18T14:46:06.392Z,15.70
2023-02-18T14:49:13.327Z,15.80
2023-02-18T14:51:42.176Z,15.70
2023-02-18T14:54:16.001Z,15.80
2023-02-18T14:57:00.928Z,15.70
2023-02-18T14:59:31.396Z,15.70
2023-02-18T15:01:58.458Z,15.70
2023-02-18T15:04:26.465Z,15.70
2023-02-18T15:07:04.754Z,15.70
2023-02-18T15:09:31.993Z,15.70
2023-02-18T15:12:05.638Z,15.60
2023-02-18T15:14:38.493Z,15.60
2023-02-18T15:17:08.223Z,15.60
2023-02-18T15:19:52.334Z,15.50
2023-02-18T15:22:22.287Z,15.50
2023-02-18T15:24:51.123Z,15.40
2023-02-18T15:27:22.386Z,15.40
2023-02-18T15:29:51.954Z,15.40
2023-02-18T15:32:22.691Z,15.40
2023-02-18T15:34:52.657Z,15.40
2023-02-18T15:37:19.939Z,15.30
2023-02-18T15:39:48.114Z,15.30
2023-02-18T15:42:20.413Z,15.20
2023-02-18T15:44:52.713Z,15.20
2023-02-18T15:47:20.673Z,15.20
2023-02-18T15:49:51.850Z,15.20
2023-02-18T15:52:25.132Z,15.10
2023-02-18T15:54:52.138Z,15.20
2023-02-18T15:57:23.257Z,15.20
2023-02-18T16:00:19.874Z,15.10
2023-02-18T16:02:57.506Z,15.10
2023-02-18T16:05:29.455Z,15.10
2023-02-18T16:08:05.491Z,15.00
2023-02-18T16:10:36.316Z,15.10
2023-02-18T16:13:04.779Z,15.10
2023-02-18T16:15:38.249Z,15.10
2023-02-18T16:18:07.130Z,15.10
2023-02-18T16:20:36.815Z,15.00
2023-02-18T16:23:13.525Z,15.00
2023-02-18T16:25:47.383Z,14.90
2023-02-18T16:28:33.194Z,14.90
2023-02-18T16:30:59.948Z,14.90
2023-02-18T16:33:26.744Z,14.90
2023-02-18T16:35:57.701Z,14.80
2023-02-18T16:38:25.342Z,14.80
2023-02-18T16:40:54.137Z,14.80
2023-02-18T16:43:23.507Z,14.80
2023-02-18T16:45:52.867Z,14.80
2023-02-18T16:48:33.389Z,14.70
2023-02-18T16:51:13.886Z,14.70
2023-02-18T16:53:40.903Z,14.60
2023-02-18T16:56:25.391Z,14.60
2023-02-18T16:58:52.305Z,14.60
2023-02-18T17:01:42.721Z,14.60
2023-02-18T17:04:12.668Z,14.60
2023-02-18T17:06:39.756Z,14.60
2023-02-18T17:09:16.980Z,14.60
2023-02-18T17:11:46.202Z,14.60
2023-02-18T17:14:18.406Z,14.50
2023-02-18T17:16:46.997Z,14.50
2023-02-18T17:19:14.179Z,14.50
2023-02-18T17:21:41.334Z,14.40
2023-02-18T17:24:13.253Z,14.40
2023-02-18T17:26:40.711Z,14.30
2023-02-18T17:29:07.834Z,14.30
2023-02-18T17:31:37.714Z,14.20
2023-02-18T17:34:08.461Z,14.20
2023-02-18T17:36:35.933Z,14.20
2023-02-18T17:39:03.783Z,14.10
2023-02-18T17:41:30.632Z,14.10
2023-02-18T17:43:57.515Z,14.10
2023-02-18T17:46:24.403Z,14.10
2023-02-18T17:48:51.303Z,14.10
2023-02-18T17:51:25.108Z,14.10
2023-02-18T17:53:53.804Z,14.00
2023-02-18T17:56:25.767Z,14.10
2023-02-18T17:58:52.787Z,14.10
2023-02-18T18:01:21.213Z,14.10
2023-02-18T18:03:48.132Z,14.10
2023-02-18T18:06:17.525Z,14.10
2023-02-18T18:08:44.715Z,14.10
2023-02-18T18:11:19.038Z,14.10
2023-02-18T18:13:46.508Z,14.20
2023-02-18T18:16:15.589Z,14.20
2023-02-18T18:18:43.286Z,14.20
2023-02-18T18:21:23.621Z,14.20
2023-02-18T18:23:50.850Z,14.20
2023-02-18T18:26:18.083Z,14.20
2023-02-18T18:28:44.977Z,14.20
2023-02-18T18:31:18.910Z,14.20
2023-02-18T18:33:51.542Z,14.20
2023-02-18T18:36:19.959Z,14.20
2023-02-18T18:38:47.508Z,14.20
2023-02-18T18:41:17.549Z,14.20
2023-02-18T18:43:45.398Z,14.10
2023-02-18T18:46:12.414Z,14.10
2023-02-18T18:48:39.846Z,14.20
2023-02-18T18:51:07.185Z,14.20
2023-02-18T18:53:35.564Z,14.20
2023-02-18T18:56:05.431Z,14.10
2023-02-18T18:58:33.026Z,14.10
2023-02-18T19:01:02.497Z,14.10
2023-02-18T19:03:30.947Z,14.10
2023-02-18T19:05:58.264Z,14.10
2023-02-18T19:08:25.405Z,14.10
2023-02-18T19:10:54.820Z,14.00
2023-02-18T19:13:26.208Z,14.10
2023-02-18T19:16:26.661Z,14.10
2023-02-18T19:18:54.296Z,14.00
2023-02-18T19:21:21.151Z,14.00
2023-02-18T19:23:48.137Z,14.10
2023-02-18T19:26:16.756Z,14.10
2023-02-18T19:28:45.210Z,14.10
2023-02-18T19:31:12.511Z,14.00
2023-02-18T19:33:40.170Z,14.10
2023-02-18T19:36:08.944Z,14.00
2023-02-18T19:38:35.911Z,14.00
2023-02-18T19:41:21.235Z,14.00
2023-02-18T19:43:48.198Z,14.00
2023-02-18T19:46:17.025Z,13.90
2023-02-18T19:48:46.960Z,13.90
2023-02-18T19:51:14.587Z,13.90
2023-02-18T19:53:41.531Z,13.90
2023-02-18T19:56:08.584Z,13.90
2023-02-18T19:58:36.487Z,13.90
2023-02-18T20:01:04.260Z,14.00
2023-02-18T20:03:31.174Z,13.90
2023-02-18T20:05:58.440Z,13.90
2023-02-18T20:08:25.356Z,13.90
2023-02-18T20:10:59.096Z,14.00
2023-02-18T20:13:26.252Z,13.90
2023-02-18T20:15:53.318Z,13.90
2023-02-18T20:18:20.246Z,13.90
2023-02-18T20:20:48.834Z,13.90
2023-02-18T20:23:16.266Z,13.90
2023-02-18T20:25:43.214Z,13.90
2023-02-18T20:28:10.079Z,13.90
2023-02-18T20:30:44.601Z,13.90
2023-02-18T20:33:16.278Z,13.90
2023-02-18T20:36:04.407Z,13.90
2023-02-18T20:38:33.536Z,13.90
2023-02-18T20:41:08.461Z,13.90
2023-02-18T20:43:35.543Z,14.00
2023-02-18T20:46:04.059Z,14.00
2023-02-18T20:48:31.561Z,14.00
2023-02-18T20:51:04.263Z,14.00
2023-02-18T20:53:32.520Z,13.90
2023-02-18T20:55:59.756Z,13.90
2023-02-18T20:58:26.977Z,13.90
2023-02-18T21:01:00.520Z,13.80
2023-02-18T21:03:28.238Z,13.80
2023-02-18T21:06:01.056Z,13.70
2023-02-18T21:08:28.986Z,13.70
2023-02-18T21:10:56.893Z,13.70
2023-02-18T21:13:25.267Z,13.70
2023-02-18T21:15:52.326Z,13.70
2023-02-18T21:18:19.251Z,13.70
2023-02-18T21:20:47.294Z,13.60
2023-02-18T21:23:14.158Z,13.60
2023-02-18T21:25:41.055Z,13.60
2023-02-18T21:28:08.372Z,13.60
2023-02-18T21:30:37.675Z,13.60
2023-02-18T21:33:05.627Z,13.60
2023-02-18T21:35:36.485Z,13.60
2023-02-18T21:38:04.066Z,13.60
2023-02-18T21:40:31.678Z,13.60
2023-02-18T21:43:01.493Z,13.60
2023-02-18T21:45:31.334Z,13.60
2023-02-18T21:47:58.223Z,13.60
2023-02-18T21:50:26.719Z,13.60
2023-02-18T21:52:53.621Z,13.60
2023-02-18T21:55:20.408Z,13.60
2023-02-18T21:57:47.309Z,13.60
2023-02-18T22:00:20.451Z,13.60
2023-02-18T22:02:48.208Z,13.60
2023-02-18T22:05:15.041Z,13.60
2023-02-18T22:07:41.927Z,13.60
2023-02-18T22:10:08.774Z,13.60
2023-02-18T22:12:35.734Z,13.60
2023-02-18T22:15:04.373Z,13.60
2023-02-18T22:17:32.198Z,13.60
2023-02-18T22:19:59.075Z,13.60
2023-02-18T22:22:25.964Z,13.60
2023-02-18T22:24:52.848Z,13.60
2023-02-18T22:27:19.844Z,13.60
2023-02-18T22:29:49.688Z,13.60
2023-02-18T22:32:16.660Z,13.60
2023-02-18T22:34:43.674Z,13.60
2023-02-18T22:37:10.696Z,13.60
2023-02-18T22:39:37.967Z,13.60
2023-02-18T22:42:05.307Z,13.60
2023-02-18T22:44:32.140Z,13.60
2023-02-18T22:46:59.039Z,13.50
2023-02-18T22:49:26.180Z,13.60
2023-02-18T22:51:54.379Z,13.60
2023-02-18T22:54:21.946Z,13.60
2023-02-18T22:56:49.018Z,13.60
2023-02-18T22:59:17.724Z,13.60
2023-02-18T23:01:50.555Z,13.60
2023-02-18T23:04:19.650Z,13.60
2023-02-18T23:06:47.246Z,13.70
2023-02-18T23:09:17.632Z,13.60
2023-02-18T23:11:44.616Z,13.60
2023-02-18T23:14:21.337Z,13.60
2023-02-18T23:17:15.198Z,13.70
2023-02-18T23:19:50.796Z,13.70
2023-02-18T23:22:20.239Z,13.70
2023-02-18T23:24:47.266Z,13.70
2023-02-18T23:27:15.293Z,13.80
2023-02-18T23:29:42.356Z,13.80
2023-02-18T23:32:09.809Z,13.80
2023-02-18T23:34:38.195Z,13.80
2023-02-18T23:37:05.358Z,13.80
2023-02-18T23:39:32.582Z,13.70
2023-02-18T23:41:59.520Z,13.70
2023-02-18T23:44:27.612Z,13.70
2023-02-18T23:51:05.212Z,13.70
2023-02-18T23:53:35.711Z,13.60
2023-02-18T23:56:17.683Z,13.60
2023-02-18T23:58:47.457Z,13.60
